createdAt,value
2018-05-08T00:01:17.740Z,64.40
2018-05-08T00:03:45.232Z,64.60
2018-05-08T00:06:12.774Z,64.90
2018-05-08T00:08:40.318Z,64.90
2018-05-08T00:11:08.573Z,65.10
2018-05-08T00:13:37.316Z,65.10
2018-05-08T00:16:04.831Z,65.10
2018-05-08T00:18:32.335Z,65.20
2018-05-08T00:20:59.953Z,65.70
2018-05-08T00:23:27.458Z,65.40
2018-05-08T00:25:54.978Z,65.40
2018-05-08T00:28:22.496Z,65.50
2018-05-08T00:30:50.936Z,65.50
2018-05-08T00:33:19.189Z,65.50
2018-05-08T00:35:46.683Z,65.50
2018-05-08T00:38:14.963Z,65.80
2018-05-08T00:40:43.241Z,65.80
2018-05-08T00:43:10.762Z,65.80
2018-05-08T00:45:38.341Z,66.70
2018-05-08T00:48:06.619Z,65.70
2018-05-08T00:50:34.140Z,65.90
2018-05-08T00:53:01.632Z,66.00
2018-05-08T00:55:29.256Z,66.00
2018-05-08T00:57:57.592Z,66.20
2018-05-08T01:00:25.095Z,66.20
2018-05-08T01:02:53.346Z,66.20
2018-05-08T01:05:20.863Z,66.20
2018-05-08T01:07:48.351Z,66.10
2018-05-08T01:10:15.866Z,66.10
2018-05-08T01:12:44.135Z,66.00
2018-05-08T01:15:11.699Z,65.90
2018-05-08T01:17:39.986Z,65.90
2018-05-08T01:20:08.269Z,66.70
2018-05-08T01:22:36.625Z,66.80
2018-05-08T01:25:04.167Z,66.10
2018-05-08T01:27:33.035Z,66.20
2018-05-08T01:30:00.538Z,66.40
2018-05-08T01:32:28.659Z,66.30
2018-05-08T01:34:56.843Z,66.40
2018-05-08T01:37:25.110Z,67.10
2018-05-08T01:39:53.379Z,66.50
2018-05-08T01:42:21.697Z,66.50
2018-05-08T01:44:50.906Z,66.40
2018-05-08T01:47:18.402Z,66.50
2018-05-08T01:49:45.964Z,66.50
2018-05-08T01:52:13.471Z,66.60
2018-05-08T01:54:41.734Z,66.70
2018-05-08T01:57:09.237Z,66.60
2018-05-08T01:59:36.803Z,66.50
2018-05-08T02:02:04.321Z,66.50
2018-05-08T02:04:31.827Z,66.50
2018-05-08T02:06:59.391Z,66.80
2018-05-08T02:09:26.888Z,66.80
2018-05-08T02:11:54.415Z,66.80
2018-05-08T02:14:21.912Z,67.00
2018-05-08T02:16:49.435Z,67.30
2018-05-08T02:19:17.702Z,67.30
2018-05-08T02:21:45.965Z,67.30
2018-05-08T02:24:13.481Z,67.30
2018-05-08T02:26:41.073Z,68.10
2018-05-08T02:29:08.559Z,67.60
2018-05-08T02:31:36.112Z,67.50
2018-05-08T02:34:03.585Z,68.00
2018-05-08T02:36:31.587Z,67.50
2018-05-08T02:38:59.213Z,67.00
2018-05-08T02:41:26.745Z,67.60
2018-05-08T02:43:55.035Z,67.70
2018-05-08T02:46:22.555Z,67.80
2018-05-08T02:48:50.921Z,67.90
2018-05-08T02:51:19.302Z,68.00
2018-05-08T02:53:46.797Z,68.00
2018-05-08T02:56:14.313Z,68.00
2018-05-08T02:58:41.823Z,68.20
2018-05-08T03:01:09.348Z,68.30
2018-05-08T03:03:36.931Z,68.30
2018-05-08T03:06:05.173Z,68.70
2018-05-08T03:08:32.670Z,68.50
2018-05-08T03:11:00.914Z,68.70
2018-05-08T03:13:28.412Z,68.60
2018-05-08T03:15:55.927Z,68.70
2018-05-08T03:18:23.419Z,68.70
2018-05-08T03:20:50.909Z,68.90
2018-05-08T03:23:19.248Z,69.10
2018-05-08T03:25:46.758Z,69.10
2018-05-08T03:28:15.052Z,69.40
2018-05-08T03:30:42.540Z,69.40
2018-05-08T03:33:10.046Z,69.30
2018-05-08T03:35:37.553Z,69.60
2018-05-08T03:38:05.089Z,70.30
2018-05-08T03:40:33.361Z,69.70
2018-05-08T03:43:00.886Z,69.70
2018-05-08T03:45:28.377Z,69.80
2018-05-08T03:47:55.871Z,69.80
2018-05-08T03:50:24.111Z,69.90
2018-05-08T03:52:51.609Z,69.80
2018-05-08T03:55:19.974Z,69.90
2018-05-08T03:57:47.511Z,69.90
2018-05-08T04:00:27.119Z,70.00
2018-05-08T04:03:06.822Z,70.00
2018-05-08T04:05:46.448Z,70.00
2018-05-08T04:08:36.515Z,69.50
2018-05-08T04:11:04.059Z,69.90
2018-05-08T04:13:31.593Z,70.00
2018-05-08T04:15:59.111Z,69.90
2018-05-08T04:18:26.621Z,70.00
2018-05-08T04:20:54.109Z,69.90
2018-05-08T04:23:21.601Z,69.90
2018-05-08T04:25:49.138Z,69.90
2018-05-08T04:28:16.635Z,69.80
2018-05-08T04:30:44.141Z,69.70
2018-05-08T04:33:11.634Z,69.60
2018-05-08T04:35:39.132Z,69.60
2018-05-08T04:38:07.389Z,70.10
2018-05-08T04:40:34.906Z,69.40
2018-05-08T04:43:02.426Z,69.30
2018-05-08T04:45:29.939Z,69.10
2018-05-08T04:47:57.484Z,69.00
2018-05-08T04:50:25.735Z,68.30
2018-05-08T04:52:53.223Z,68.20
2018-05-08T04:55:21.510Z,61.70
2018-05-08T04:57:49.767Z,58.80
2018-05-08T05:00:18.049Z,56.50
2018-05-08T05:02:46.392Z,54.80
2018-05-08T05:05:14.632Z,53.70
2018-05-08T05:07:42.926Z,52.30
2018-05-08T05:10:10.495Z,52.30
2018-05-08T05:12:38.019Z,51.00
2018-05-08T05:15:05.528Z,50.50
2018-05-08T05:17:33.013Z,49.80
2018-05-08T05:20:00.495Z,49.50
2018-05-08T05:22:27.976Z,48.80
2018-05-08T05:24:56.256Z,48.40
2018-05-08T05:27:23.910Z,48.30
2018-05-08T05:29:51.470Z,48.00
2018-05-08T05:32:18.997Z,47.60
2018-05-08T05:34:46.941Z,46.80
2018-05-08T05:37:15.199Z,46.40
2018-05-08T05:39:42.766Z,46.40
2018-05-08T05:42:10.260Z,47.10
2018-05-08T05:44:37.780Z,46.30
2018-05-08T05:47:05.347Z,46.10
2018-05-08T05:49:32.945Z,46.30
2018-05-08T05:52:00.425Z,45.80
2018-05-08T05:54:27.962Z,46.20
2018-05-08T05:56:56.230Z,46.90
2018-05-08T05:59:23.742Z,46.80
2018-05-08T06:01:51.227Z,46.80
2018-05-08T06:04:18.709Z,46.90
2018-05-08T06:06:46.215Z,46.40
2018-05-08T06:09:13.725Z,46.80
2018-05-08T06:11:41.262Z,46.90
2018-05-08T06:14:08.759Z,46.50
2018-05-08T06:16:36.739Z,46.10
2018-05-08T06:19:04.249Z,46.20
2018-05-08T06:21:31.891Z,46.50
2018-05-08T06:24:00.199Z,46.10
2018-05-08T06:26:27.705Z,46.10
2018-05-08T06:28:55.233Z,46.20
2018-05-08T06:31:24.143Z,46.60
2018-05-08T06:33:53.164Z,46.10
2018-05-08T06:36:22.291Z,46.20
2018-05-08T06:38:50.557Z,46.50
2018-05-08T06:41:18.919Z,46.90
2018-05-08T06:43:46.421Z,46.90
2018-05-08T06:46:15.453Z,48.20
2018-05-08T06:48:44.432Z,48.20
2018-05-08T06:51:11.969Z,48.70
2018-05-08T06:53:40.229Z,48.30
2018-05-08T06:56:07.772Z,48.20
2018-05-08T06:58:36.028Z,48.00
2018-05-08T07:01:03.620Z,47.30
2018-05-08T07:03:31.127Z,48.00
2018-05-08T07:05:59.535Z,48.00
2018-05-08T07:08:27.074Z,48.00
2018-05-08T07:10:56.368Z,47.00
2018-05-08T07:13:24.719Z,46.80
2018-05-08T07:15:52.430Z,46.70
2018-05-08T07:18:19.887Z,46.70
2018-05-08T07:20:48.177Z,46.30
2018-05-08T07:23:15.677Z,46.20
2018-05-08T07:25:44.007Z,46.10
2018-05-08T07:28:11.632Z,45.90
2018-05-08T07:30:39.168Z,46.10
2018-05-08T07:33:07.409Z,45.00
2018-05-08T07:35:36.217Z,45.00
2018-05-08T07:38:04.481Z,45.40
2018-05-08T07:40:32.027Z,45.40
2018-05-08T07:42:59.503Z,45.70
2018-05-08T07:45:28.046Z,46.60
2018-05-08T07:47:58.999Z,46.60
2018-05-08T07:50:26.651Z,46.60
2018-05-08T07:52:54.157Z,46.20
2018-05-08T07:55:23.391Z,45.40
2018-05-08T07:57:51.661Z,45.70
2018-05-08T08:00:19.899Z,46.70
2018-05-08T08:02:47.402Z,46.60
2018-05-08T08:05:15.659Z,45.60
2018-05-08T08:07:43.179Z,45.80
2018-05-08T08:10:10.678Z,45.70
2018-05-08T08:12:38.260Z,45.30
2018-05-08T08:15:06.526Z,46.30
2018-05-08T08:17:34.030Z,45.70
2018-05-08T08:20:02.296Z,45.90
2018-05-08T08:22:30.578Z,45.70
2018-05-08T08:24:58.865Z,45.10
2018-05-08T08:27:27.227Z,44.90
2018-05-08T08:29:54.697Z,44.80
2018-05-08T08:32:22.968Z,46.10
2018-05-08T08:34:50.499Z,46.10
2018-05-08T08:37:18.047Z,46.90
2018-05-08T08:39:46.877Z,44.50
2018-05-08T08:42:14.370Z,44.60
2018-05-08T08:44:42.613Z,43.90
2018-05-08T08:47:10.135Z,43.80
2018-05-08T08:49:37.653Z,41.40
2018-05-08T08:52:05.148Z,42.40
2018-05-08T08:54:33.401Z,41.50
2018-05-08T08:57:01.302Z,41.50
2018-05-08T08:59:28.955Z,40.30
2018-05-08T09:01:56.456Z,40.30
2018-05-08T09:04:24.000Z,41.00
2018-05-08T09:06:52.282Z,38.90
2018-05-08T09:09:20.548Z,40.00
2018-05-08T09:11:48.821Z,40.00
2018-05-08T09:14:17.922Z,38.70
2018-05-08T09:16:46.218Z,39.40
2018-05-08T09:19:14.474Z,38.20
2018-05-08T09:21:41.988Z,38.20
2018-05-08T09:24:09.498Z,38.70
2018-05-08T09:26:37.022Z,37.90
2018-05-08T09:29:04.508Z,36.90
2018-05-08T09:31:32.012Z,37.70
2018-05-08T09:34:00.295Z,36.80
2018-05-08T09:36:28.548Z,37.60
2018-05-08T09:38:56.082Z,37.60
2018-05-08T09:41:23.578Z,37.40
2018-05-08T09:43:51.108Z,37.30
2018-05-08T09:46:18.788Z,36.30
2018-05-08T09:48:46.384Z,35.30
2018-05-08T09:51:13.844Z,35.90
2018-05-08T09:53:43.138Z,36.90
2018-05-08T09:56:10.660Z,36.80
2018-05-08T09:58:38.178Z,36.80
2018-05-08T10:01:06.510Z,38.40
2018-05-08T10:03:33.942Z,38.40
2018-05-08T10:06:02.262Z,39.40
2018-05-08T10:08:29.730Z,39.30
2018-05-08T10:10:57.262Z,38.90
2018-05-08T10:13:24.810Z,38.80
2018-05-08T10:15:52.339Z,38.00
2018-05-08T10:18:19.822Z,37.80
2018-05-08T10:20:48.072Z,36.80
2018-05-08T10:23:15.552Z,37.10
2018-05-08T10:25:43.036Z,38.10
2018-05-08T10:28:11.294Z,38.60
2018-05-08T10:30:39.568Z,39.00
2018-05-08T10:33:07.171Z,38.60
2018-05-08T10:35:35.334Z,37.60
2018-05-08T10:38:03.595Z,36.10
2018-05-08T10:40:31.102Z,36.10
2018-05-08T10:42:58.596Z,35.50
2018-05-08T10:45:26.180Z,35.30
2018-05-08T10:47:53.684Z,35.20
2018-05-08T10:50:21.988Z,34.70
2018-05-08T10:52:49.514Z,35.20
2018-05-08T10:55:17.955Z,34.70
2018-05-08T10:57:45.478Z,34.60
2018-05-08T11:00:13.788Z,33.80
2018-05-08T11:02:41.284Z,33.80
2018-05-08T11:05:08.872Z,34.10
2018-05-08T11:07:37.132Z,34.50
2018-05-08T11:10:04.674Z,34.40
2018-05-08T11:12:32.201Z,34.20
2018-05-08T11:15:00.454Z,33.30
2018-05-08T11:17:28.704Z,34.40
2018-05-08T11:19:56.197Z,33.80
2018-05-08T11:22:23.832Z,33.70
2018-05-08T11:24:51.435Z,33.90
2018-05-08T11:27:19.705Z,33.50
2018-05-08T11:29:47.215Z,33.50
2018-05-08T11:32:14.815Z,33.50
2018-05-08T11:34:42.318Z,34.00
2018-05-08T11:37:10.592Z,34.40
2018-05-08T11:39:38.258Z,34.40
2018-05-08T11:42:07.214Z,34.80
2018-05-08T11:44:34.738Z,34.80
2018-05-08T11:47:02.244Z,34.60
2018-05-08T11:49:29.816Z,34.60
2018-05-08T11:51:57.404Z,34.80
2018-05-08T11:54:24.883Z,35.10
2018-05-08T11:56:53.127Z,35.60
2018-05-08T11:59:20.673Z,35.60
2018-05-08T12:01:48.209Z,36.00
2018-05-08T12:04:15.717Z,36.80
2018-05-08T12:06:43.216Z,36.90
2018-05-08T12:09:11.575Z,37.40
2018-05-08T12:11:39.052Z,37.40
2018-05-08T12:14:07.980Z,36.80
2018-05-08T12:16:35.589Z,36.60
2018-05-08T12:19:03.055Z,36.40
2018-05-08T12:21:31.345Z,36.50
2018-05-08T12:23:59.639Z,37.00
2018-05-08T12:26:27.906Z,37.60
2018-05-08T12:28:56.185Z,37.10
2018-05-08T12:31:23.868Z,37.10
2018-05-08T12:33:52.161Z,37.60
2018-05-08T12:36:21.361Z,37.40
2018-05-08T12:38:49.773Z,37.60
2018-05-08T12:41:17.276Z,37.60
2018-05-08T12:43:44.789Z,37.90
2018-05-08T12:46:12.311Z,38.00
2018-05-08T12:48:40.623Z,37.40
2018-05-08T12:51:08.154Z,37.40
2018-05-08T12:53:36.470Z,37.30
2018-05-08T12:56:04.036Z,37.30
2018-05-08T12:58:33.025Z,37.80
2018-05-08T13:01:00.611Z,37.80
2018-05-08T13:03:29.376Z,36.30
2018-05-08T13:05:57.827Z,35.60
2018-05-08T13:08:25.613Z,35.50
2018-05-08T13:10:55.205Z,35.50
2018-05-08T13:13:22.780Z,35.40
2018-05-08T13:15:51.058Z,35.80
2018-05-08T13:18:18.896Z,35.80
2018-05-08T13:20:46.415Z,35.40
2018-05-08T13:23:14.944Z,34.30
2018-05-08T13:25:44.001Z,34.30
2018-05-08T13:28:14.641Z,34.20
2018-05-08T13:30:43.092Z,34.50
2018-05-08T13:33:10.850Z,34.80
2018-05-08T13:35:39.292Z,34.50
2018-05-08T13:38:09.651Z,34.50
2018-05-08T13:40:39.519Z,33.80
2018-05-08T13:43:08.040Z,33.80
2018-05-08T13:45:35.689Z,33.40
2018-05-08T13:48:04.362Z,33.20
2018-05-08T13:50:33.433Z,32.80
2018-05-08T13:53:01.772Z,32.80
2018-05-08T13:55:29.301Z,32.70
2018-05-08T13:57:57.622Z,33.20
2018-05-08T14:00:26.795Z,33.10
2018-05-08T14:03:02.069Z,32.70
2018-05-08T14:05:29.855Z,32.60
2018-05-08T14:07:57.372Z,32.60
2018-05-08T14:10:24.892Z,33.20
2018-05-08T14:12:52.972Z,33.40
2018-05-08T14:15:21.205Z,32.30
2018-05-08T14:17:48.644Z,32.10
2018-05-08T14:20:16.166Z,32.90
2018-05-08T14:22:43.650Z,33.70
2018-05-08T14:25:11.336Z,33.90
2018-05-08T14:27:39.599Z,33.00
2018-05-08T14:30:08.663Z,32.90
2018-05-08T14:32:36.394Z,32.90
2018-05-08T14:35:04.156Z,33.00
2018-05-08T14:37:32.516Z,32.80
2018-05-08T14:40:02.627Z,33.10
2018-05-08T14:42:31.651Z,33.10
2018-05-08T14:45:00.441Z,32.90
2018-05-08T14:47:28.694Z,33.40
2018-05-08T14:49:56.461Z,33.40
2018-05-08T14:52:23.961Z,33.40
2018-05-08T14:54:55.209Z,34.30
2018-05-08T14:57:25.663Z,34.50
2018-05-08T14:59:54.394Z,34.40
2018-05-08T15:02:22.307Z,34.30
2018-05-08T15:04:51.675Z,34.40
2018-05-08T15:07:19.517Z,34.40
2018-05-08T15:09:47.165Z,34.00
2018-05-08T15:12:14.697Z,33.60
2018-05-08T15:14:43.046Z,33.30
2018-05-08T15:17:10.561Z,33.40
2018-05-08T15:19:38.945Z,33.40
2018-05-08T15:22:07.419Z,33.70
2018-05-08T15:24:35.356Z,33.60
2018-05-08T15:27:05.979Z,34.00
2018-05-08T15:29:33.492Z,33.50
2018-05-08T15:32:01.816Z,33.10
2018-05-08T15:34:31.287Z,33.10
2018-05-08T15:36:59.581Z,32.10
2018-05-08T15:39:27.092Z,32.10
2018-05-08T15:41:54.624Z,31.90
2018-05-08T15:44:22.108Z,32.50
2018-05-08T15:46:50.019Z,32.70
2018-05-08T15:49:18.458Z,32.70
2018-05-08T15:51:45.955Z,32.60
2018-05-08T15:54:14.217Z,32.30
2018-05-08T15:56:41.717Z,32.30
2018-05-08T15:59:10.042Z,32.70
2018-05-08T16:01:37.644Z,32.70
2018-05-08T16:04:05.114Z,32.90
2018-05-08T16:06:33.388Z,31.60
2018-05-08T16:09:01.758Z,31.20
2018-05-08T16:11:29.309Z,31.20
2018-05-08T16:13:56.812Z,31.20
2018-05-08T16:16:25.286Z,31.60
2018-05-08T16:18:53.567Z,31.70
2018-05-08T16:21:21.822Z,31.90
2018-05-08T16:23:49.364Z,31.70
2018-05-08T16:26:16.861Z,33.00
2018-05-08T16:28:44.492Z,32.10
2018-05-08T16:31:12.009Z,32.10
2018-05-08T16:33:40.286Z,33.00
2018-05-08T16:36:08.646Z,32.60
2018-05-08T16:38:36.176Z,32.40
2018-05-08T16:41:03.734Z,32.90
2018-05-08T16:43:31.796Z,32.60
2018-05-08T16:46:00.067Z,32.90
2018-05-08T16:48:29.672Z,33.00
2018-05-08T16:50:57.171Z,33.00
2018-05-08T16:53:26.031Z,32.90
2018-05-08T16:55:54.297Z,33.60
2018-05-08T16:58:21.799Z,33.40
2018-05-08T17:00:49.284Z,33.70
2018-05-08T17:03:16.986Z,33.80
2018-05-08T17:05:44.456Z,34.00
2018-05-08T17:08:12.728Z,33.90
2018-05-08T17:10:40.224Z,33.90
2018-05-08T17:13:07.737Z,34.20
2018-05-08T17:15:35.285Z,34.00
2018-05-08T17:18:03.015Z,34.10
2018-05-08T17:20:30.437Z,34.20
2018-05-08T17:22:57.955Z,34.20
2018-05-08T17:25:25.465Z,34.10
2018-05-08T17:27:52.972Z,34.70
2018-05-08T17:30:20.575Z,34.20
2018-05-08T17:32:48.097Z,34.20
2018-05-08T17:35:16.367Z,34.90
2018-05-08T17:37:44.691Z,34.90
2018-05-08T17:40:12.223Z,34.80
2018-05-08T17:42:40.493Z,34.90
2018-05-08T17:45:08.756Z,34.70
2018-05-08T17:47:36.412Z,34.70
2018-05-08T17:50:03.896Z,35.00
2018-05-08T17:52:32.184Z,35.20
2018-05-08T17:55:00.462Z,35.30
2018-05-08T17:57:28.858Z,35.30
2018-05-08T17:59:56.319Z,35.30
2018-05-08T18:02:24.601Z,35.40
2018-05-08T18:04:52.942Z,35.80
2018-05-08T18:07:20.789Z,35.70
2018-05-08T18:09:48.297Z,35.90
2018-05-08T18:12:15.839Z,36.10
2018-05-08T18:14:43.537Z,36.80
2018-05-08T18:17:12.493Z,36.30
2018-05-08T18:19:40.052Z,36.30
2018-05-08T18:22:07.584Z,36.50
2018-05-08T18:24:35.158Z,36.70
2018-05-08T18:27:03.551Z,37.20
2018-05-08T18:29:31.045Z,37.10
2018-05-08T18:31:58.548Z,37.30
2018-05-08T18:34:26.887Z,37.90
2018-05-08T18:36:55.224Z,38.20
2018-05-08T18:39:22.694Z,38.10
2018-05-08T18:41:50.248Z,38.40
2018-05-08T18:44:17.749Z,38.60
2018-05-08T18:46:45.302Z,38.80
2018-05-08T18:49:12.810Z,39.00
2018-05-08T18:51:41.312Z,39.60
2018-05-08T18:54:09.704Z,39.90
2018-05-08T18:56:37.400Z,39.80
2018-05-08T18:59:05.093Z,40.10
2018-05-08T19:01:32.614Z,40.20
2018-05-08T19:04:01.443Z,40.60
2018-05-08T19:06:28.965Z,40.70
2018-05-08T19:08:56.476Z,41.00
2018-05-08T19:11:30.603Z,41.30
2018-05-08T19:13:59.495Z,41.50
2018-05-08T19:16:27.002Z,41.70
2018-05-08T19:19:00.350Z,41.90
2018-05-08T19:21:27.875Z,42.10
2018-05-08T19:24:01.227Z,42.20
2018-05-08T19:26:29.508Z,42.50
2018-05-08T19:29:03.629Z,42.60
2018-05-08T19:31:31.377Z,42.50
2018-05-08T19:33:58.986Z,42.60
2018-05-08T19:36:32.370Z,42.70
2018-05-08T19:39:00.745Z,43.00
2018-05-08T19:41:28.855Z,43.20
2018-05-08T19:43:56.572Z,43.20
2018-05-08T19:46:24.131Z,43.30
2018-05-08T19:48:53.150Z,43.70
2018-05-08T19:51:20.683Z,43.70
2018-05-08T19:53:48.224Z,43.80
2018-05-08T19:56:15.727Z,43.90
2018-05-08T19:58:43.338Z,44.00
2018-05-08T20:01:10.837Z,43.90
2018-05-08T20:03:38.348Z,44.20
2018-05-08T20:06:05.848Z,44.40
2018-05-08T20:08:33.391Z,44.50
2018-05-08T20:11:15.003Z,45.00
2018-05-08T20:13:45.045Z,45.00
2018-05-08T20:16:13.385Z,45.20
2018-05-08T20:18:42.184Z,45.60
2018-05-08T20:21:09.751Z,45.60
2018-05-08T20:23:38.143Z,45.70
2018-05-08T20:26:05.712Z,45.70
2018-05-08T20:28:37.427Z,45.90
2018-05-08T20:31:05.087Z,46.00
2018-05-08T20:33:33.403Z,46.40
2018-05-08T20:36:01.306Z,46.30
2018-05-08T20:38:29.866Z,46.50
2018-05-08T20:40:57.409Z,46.70
2018-05-08T20:43:24.913Z,46.80
2018-05-08T20:45:52.405Z,46.90
2018-05-08T20:48:21.168Z,47.60
2018-05-08T20:50:48.701Z,47.10
2018-05-08T20:53:16.211Z,47.30
2018-05-08T20:55:43.726Z,47.40
2018-05-08T20:58:11.253Z,47.50
2018-05-08T21:00:39.900Z,47.70
2018-05-08T21:03:07.555Z,47.80
2018-05-08T21:05:37.452Z,48.10
2018-05-08T21:08:06.723Z,48.50
2018-05-08T21:10:34.471Z,48.40
2018-05-08T21:13:02.923Z,48.60
2018-05-08T21:15:30.439Z,48.80
2018-05-08T21:17:58.819Z,49.80
2018-05-08T21:20:27.360Z,49.20
2018-05-08T21:22:55.245Z,49.20
2018-05-08T21:25:23.931Z,49.20
2018-05-08T21:27:57.229Z,49.10
2018-05-08T21:30:31.342Z,49.10
2018-05-08T21:33:00.015Z,49.20
2018-05-08T21:35:27.553Z,49.00
2018-05-08T21:37:56.778Z,48.90
2018-05-08T21:40:28.930Z,48.90
2018-05-08T21:42:59.703Z,49.00
2018-05-08T21:45:27.227Z,49.20
2018-05-08T21:47:55.509Z,49.30
2018-05-08T21:50:24.389Z,49.40
2018-05-08T21:52:51.975Z,49.40
2018-05-08T21:55:20.291Z,49.30
2018-05-08T21:57:47.956Z,49.30
2018-05-08T22:00:15.520Z,49.30
2018-05-08T22:02:43.029Z,49.30
2018-05-08T22:05:12.070Z,49.20
2018-05-08T22:07:39.629Z,49.30
2018-05-08T22:10:07.147Z,49.50
2018-05-08T22:12:34.678Z,49.60
2018-05-08T22:15:02.511Z,49.60
2018-05-08T22:17:30.034Z,49.60
2018-05-08T22:19:57.707Z,49.80
2018-05-08T22:22:25.343Z,50.00
2018-05-08T22:24:54.718Z,50.00
2018-05-08T22:27:22.336Z,50.20
2018-05-08T22:29:49.861Z,50.40
2018-05-08T22:32:17.371Z,50.50
2018-05-08T22:34:45.684Z,50.60
2018-05-08T22:37:13.986Z,50.90
2018-05-08T22:39:41.526Z,50.90
2018-05-08T22:42:09.056Z,51.10
2018-05-08T22:44:36.633Z,51.30
2018-05-08T22:47:04.937Z,51.20
2018-05-08T22:49:33.242Z,51.60
2018-05-08T22:52:00.748Z,51.50
2018-05-08T22:54:28.284Z,51.60
2018-05-08T22:56:55.799Z,51.70
2018-05-08T22:59:24.127Z,52.20
2018-05-08T23:01:52.335Z,51.90
2018-05-08T23:04:19.926Z,52.00
2018-05-08T23:06:48.173Z,52.50
2018-05-08T23:09:15.657Z,52.40
2018-05-08T23:11:43.916Z,52.90
2018-05-08T23:14:11.492Z,52.70
2018-05-08T23:16:38.990Z,52.90
2018-05-08T23:19:06.543Z,53.00
2018-05-08T23:21:34.802Z,53.20
2018-05-08T23:24:02.509Z,53.20
2018-05-08T23:26:30.030Z,53.30
2018-05-08T23:28:57.583Z,53.30
2018-05-08T23:31:25.094Z,53.50
2018-05-08T23:33:55.709Z,53.70
2018-05-08T23:36:23.984Z,53.90
2018-05-08T23:38:51.489Z,53.80
2018-05-08T23:41:18.986Z,54.00
2018-05-08T23:43:46.481Z,54.20
2018-05-08T23:46:15.012Z,54.60
2018-05-08T23:48:42.500Z,54.60
2018-05-08T23:51:10.026Z,54.60
2018-05-08T23:53:37.548Z,54.80
2018-05-08T23:56:05.039Z,54.90
2018-05-08T23:58:32.512Z,55.10
